createdAt,value
2018-06-24T01:14:01.244Z,0.1
2018-06-24T01:15:01.090Z,0.1
2018-06-24T01:16:01.095Z,0.2
2018-06-24T01:17:01.091Z,0.3
2018-06-24T01:19:01.298Z,0.4
2018-06-24T01:20:01.118Z,0.5
2018-06-24T01:22:01.090Z,0.6
2018-06-24T01:23:01.058Z,0.7
2018-06-24T01:25:01.325Z,0.8
2018-06-24T01:26:01.092Z,0.9
2018-06-24T01:28:01.155Z,1.0
2018-06-24T01:30:01.301Z,1.0
2018-06-24T01:32:01.095Z,1.1
2018-06-24T01:34:01.095Z,1.2
2018-06-24T01:35:01.201Z,1.3
2018-06-24T01:37:01.096Z,1.4
2018-06-24T01:38:01.063Z,1.5
2018-06-24T01:40:01.309Z,1.6
2018-06-24T01:41:01.099Z,1.7
2018-06-24T01:43:01.063Z,1.8
2018-06-24T01:44:01.063Z,1.9
2018-06-24T01:45:01.313Z,1.9
2018-06-24T01:46:01.105Z,2.0
2018-06-24T01:47:01.096Z,2.1
2018-06-24T01:49:02.198Z,2.3
2018-06-24T01:50:01.209Z,2.5
2018-06-24T01:51:01.062Z,2.7
2018-06-24T01:52:01.124Z,3.1
2018-06-24T01:53:01.103Z,3.5
2018-06-24T01:54:01.098Z,4.0
2018-06-24T01:55:01.243Z,4.6
2018-06-24T01:56:01.095Z,5.3
2018-06-24T01:57:01.122Z,6.0
2018-06-24T01:58:01.100Z,6.9
2018-06-24T01:59:01.101Z,7.9
2018-06-24T02:00:01.308Z,9.0
2018-06-24T02:01:01.069Z,10.4
2018-06-24T02:02:01.127Z,11.9
2018-06-24T02:03:01.069Z,13.6
2018-06-24T02:04:01.103Z,15.4
2018-06-24T02:05:01.243Z,17.3
2018-06-24T02:06:01.100Z,19.4
2018-06-24T02:07:06.112Z,21.5
2018-06-24T02:09:01.147Z,24.2
2018-06-24T02:10:01.232Z,27.0
2018-06-24T02:11:01.089Z,30.0
2018-06-24T02:12:01.108Z,33.2
2018-06-24T02:13:01.093Z,36.5
2018-06-24T02:14:01.091Z,40.2
2018-06-24T02:15:01.294Z,44.2
2018-06-24T02:16:01.095Z,48.7
2018-06-24T02:17:01.118Z,53.2
2018-06-24T02:18:01.091Z,57.7
2018-06-24T02:19:01.085Z,62.1
2018-06-24T02:20:01.234Z,67.3
2018-06-24T02:21:01.089Z,73.5
2018-06-24T02:22:01.115Z,79.7
2018-06-24T02:23:01.103Z,87.0
2018-06-24T02:24:01.095Z,93.6
2018-06-24T02:25:01.230Z,101.7
2018-06-24T02:26:06.092Z,111.2
2018-06-24T02:27:01.097Z,121.5
2018-06-24T02:28:01.060Z,131.9
2018-06-24T02:29:01.096Z,142.1
2018-06-24T02:30:01.306Z,153.5
2018-06-24T02:31:01.087Z,164.5
2018-06-24T02:32:01.101Z,176.7
2018-06-24T02:33:01.097Z,189.7
2018-06-24T02:34:01.101Z,205.6
2018-06-24T02:35:01.244Z,225.4
2018-06-24T02:36:06.093Z,248.2
2018-06-24T02:37:01.106Z,272.9
2018-06-24T02:38:01.103Z,290.1
2018-06-24T02:39:01.068Z,303.5
2018-06-24T02:40:01.317Z,318.3
2018-06-24T02:41:01.130Z,335.6
2018-06-24T02:42:01.100Z,357.9
2018-06-24T02:43:01.066Z,379.5
2018-06-24T02:44:01.103Z,405.4
2018-06-24T02:45:01.249Z,434.2
2018-06-24T02:46:01.125Z,468.7
2018-06-24T02:48:01.157Z,520.2
2018-06-24T02:49:01.092Z,582.3
2018-06-24T02:50:01.258Z,641.6
2018-06-24T02:51:01.118Z,702.3
2018-06-24T02:52:01.055Z,762.0
2018-06-24T02:53:01.083Z,814.3
2018-06-24T02:54:01.111Z,875.1
2018-06-24T02:55:01.237Z,926.3
2018-06-24T02:56:01.054Z,961.3
2018-06-24T02:57:01.088Z,1009.5
2018-06-24T02:58:01.058Z,1067.9
2018-06-24T02:59:01.119Z,1124.9
2018-06-24T03:00:01.321Z,1172.5
2018-06-24T03:01:01.087Z,1225.9
2018-06-24T03:02:01.107Z,1274.9
2018-06-24T03:03:01.114Z,1310.1
2018-06-24T03:04:01.130Z,1351.4
2018-06-24T03:05:01.298Z,1402.4
2018-06-24T03:06:01.086Z,1442.1
2018-06-24T03:07:01.056Z,1475.4
2018-06-24T03:08:01.089Z,1509.5
2018-06-24T03:09:01.086Z,1545.0
2018-06-24T03:10:01.294Z,1607.5
2018-06-24T03:11:01.089Z,1689.5
2018-06-24T03:12:01.099Z,1751.1
2018-06-24T03:13:01.094Z,1812.3
2018-06-24T03:14:01.102Z,1909.5
2018-06-24T03:15:01.298Z,2003.3
2018-06-24T03:16:01.097Z,2096.3
2018-06-24T03:17:01.092Z,2253.8
2018-06-24T03:18:01.072Z,2439.1
2018-06-24T03:19:01.097Z,2619.4
2018-06-24T03:20:01.235Z,2775.3
2018-06-24T03:21:01.060Z,2867.3
2018-06-24T03:22:01.061Z,2942.9
2018-06-24T03:23:01.064Z,3047.5
2018-06-24T03:24:01.108Z,3195.3
2018-06-24T03:25:01.358Z,3365.3
2018-06-24T03:26:01.095Z,3577.9
2018-06-24T03:27:01.058Z,3801.7
2018-06-24T03:28:01.059Z,3940.0
2018-06-24T03:29:01.092Z,4005.7
2018-06-24T03:30:01.203Z,4061.6
2018-06-24T03:31:01.104Z,4096.0
2018-06-24T03:32:01.070Z,4069.6
2018-06-24T03:33:01.070Z,4026.1
2018-06-24T03:34:01.059Z,3975.9
2018-06-24T03:35:01.207Z,3904.2
2018-06-24T03:36:01.097Z,3887.9
2018-06-24T03:37:01.103Z,3891.5
2018-06-24T03:38:01.095Z,3862.6
2018-06-24T03:39:01.103Z,3758.9
2018-06-24T03:40:01.268Z,3629.5
2018-06-24T03:41:01.149Z,3442.1
2018-06-24T03:42:01.097Z,3250.6
2018-06-24T03:43:01.096Z,3132.7
2018-06-24T03:44:01.063Z,3038.5
2018-06-24T03:45:01.261Z,2964.0
2018-06-24T03:46:01.103Z,2921.2
2018-06-24T03:47:01.096Z,2890.5
2018-06-24T03:48:01.100Z,2894.1
2018-06-24T03:49:01.101Z,2938.4
2018-06-24T03:50:01.241Z,3073.5
2018-06-24T03:51:01.113Z,3236.9
2018-06-24T03:52:01.106Z,3431.6
2018-06-24T03:53:01.101Z,3671.9
2018-06-24T03:54:06.104Z,3962.3
2018-06-24T03:55:01.249Z,4253.3
2018-06-24T03:56:01.067Z,4511.9
2018-06-24T03:58:01.266Z,4688.9
2018-06-24T03:59:01.087Z,4840.0
2018-06-24T04:00:01.233Z,5002.9
2018-06-24T04:01:01.051Z,5148.4
2018-06-24T04:02:01.091Z,5222.6
2018-06-24T04:03:01.108Z,5281.9
2018-06-24T04:04:01.058Z,5372.3
2018-06-24T04:05:01.233Z,5416.7
2018-06-24T04:06:01.084Z,5360.0
2018-06-24T04:07:01.091Z,5311.2
2018-06-24T04:08:01.114Z,5281.4
2018-06-24T04:09:01.090Z,5238.1
2018-06-24T04:10:01.229Z,5243.7
2018-06-24T04:11:01.087Z,5298.8
2018-06-24T04:12:01.089Z,5439.1
2018-06-24T04:13:01.117Z,5748.3
2018-06-24T04:14:01.086Z,6161.0
2018-06-24T04:15:01.200Z,6515.1
2018-06-24T04:16:01.057Z,6867.6
2018-06-24T04:17:01.058Z,7551.6
2018-06-24T04:18:01.127Z,8336.3
2018-06-24T04:19:01.092Z,9051.5
2018-06-24T04:20:01.332Z,9722.1
2018-06-24T04:21:01.059Z,10230.2
2018-06-24T04:22:01.094Z,10818.4
2018-06-24T04:23:01.094Z,11449.2
2018-06-24T04:24:01.093Z,11951.4
2018-06-24T04:25:01.344Z,12058.4
2018-06-24T04:26:01.101Z,11967.0
2018-06-24T04:27:01.153Z,11781.3
2018-06-24T04:28:06.098Z,11529.9
2018-06-24T04:29:01.098Z,11238.9
2018-06-24T04:30:01.209Z,11151.3
2018-06-24T04:31:01.097Z,11140.7
2018-06-24T04:32:01.063Z,11048.9
2018-06-24T04:33:01.137Z,10933.1
2018-06-24T04:34:01.059Z,10825.2
2018-06-24T04:35:01.210Z,10914.1
2018-06-24T04:36:01.062Z,11315.9
2018-06-24T04:37:01.093Z,11629.7
2018-06-24T04:38:01.135Z,11891.9
2018-06-24T04:39:01.163Z,12208.1
2018-06-24T04:40:01.245Z,13018.3
2018-06-24T04:41:01.066Z,14208.1
2018-06-24T04:42:01.100Z,15768.0
2018-06-24T04:43:01.132Z,17433.0
2018-06-24T04:44:01.098Z,19138.2
2018-06-24T04:45:01.240Z,20590.0
2018-06-24T04:46:01.101Z,21829.6
2018-06-24T04:47:01.098Z,22986.5
2018-06-24T04:48:01.146Z,23919.2
2018-06-24T04:49:01.102Z,25097.1
2018-06-24T04:50:01.213Z,26008.5
2018-06-24T04:51:01.070Z,27089.5
2018-06-24T04:53:01.118Z,28704.7
2018-06-24T04:54:01.084Z,30240.2
2018-06-24T04:55:01.357Z,31861.6
2018-06-24T04:56:01.085Z,33512.7
2018-06-24T04:57:01.110Z,35347.3
2018-06-24T04:58:01.082Z,36514.7
2018-06-24T04:59:01.085Z,37224.3
2018-06-24T05:00:01.204Z,37678.5
2018-06-24T05:01:01.054Z,38287.7
2018-06-24T05:02:06.059Z,38975.1
2018-06-24T05:03:01.058Z,39556.2
2018-06-24T05:04:01.057Z,39947.3
2018-06-24T05:05:01.305Z,39875.3
2018-06-24T05:06:06.062Z,39664.9
2018-06-24T05:07:01.088Z,39239.9
2018-06-24T05:08:01.091Z,38617.5
2018-06-24T05:09:01.093Z,38347.2
2018-06-24T05:10:01.239Z,37843.6
2018-06-24T05:11:06.083Z,37062.6
2018-06-24T05:12:01.058Z,35747.6
2018-06-24T05:13:01.090Z,35085.1
2018-06-24T05:14:01.089Z,35037.5
2018-06-24T05:15:01.242Z,35422.3
2018-06-24T05:16:06.091Z,35828.5
2018-06-24T05:17:01.059Z,36506.6
2018-06-24T05:18:01.059Z,37600.2
2018-06-24T05:19:01.096Z,39000.0
2018-06-24T05:20:01.299Z,40933.0
2018-06-24T05:21:06.062Z,43330.9
2018-06-24T05:22:01.095Z,45838.7
2018-06-24T05:23:01.061Z,47995.1
2018-06-24T05:24:01.095Z,49837.6
2018-06-24T05:25:01.325Z,51877.9
2018-06-24T05:26:01.116Z,53996.1
2018-06-24T05:27:01.062Z,56223.4
2018-06-24T05:28:01.091Z,58146.0
2018-06-24T05:29:01.093Z,59780.7
2018-06-24T05:30:01.300Z,61070.3
2018-06-24T05:31:06.093Z,62130.7
2018-06-24T05:32:01.068Z,63243.5
2018-06-24T05:33:01.097Z,63780.3
2018-06-24T05:34:01.067Z,64496.8
2018-06-24T05:35:01.236Z,64878.9
2018-06-24T05:36:01.120Z,65048.1
2018-06-24T05:45:01.236Z,65133.7
2018-06-24T05:46:06.095Z,65383.9
2018-06-24T05:48:01.158Z,65535.0
2018-06-24T05:57:01.374Z,64968.7
2018-06-24T05:58:01.099Z,64928.3
2018-06-24T06:00:01.104Z,64928.3
2018-06-24T06:12:01.100Z,65494.7
2018-06-24T06:14:01.228Z,65535.0
2018-06-24T06:15:01.085Z,65535.0
2018-06-24T06:25:01.355Z,64989.1
2018-06-24T06:26:01.094Z,63658.1
2018-06-24T06:27:01.101Z,62062.0
2018-06-24T06:28:01.091Z,60475.5
2018-06-24T06:29:01.092Z,58638.8
2018-06-24T06:30:01.237Z,56911.6
2018-06-24T06:31:01.063Z,55296.8
2018-06-24T06:32:01.094Z,53897.6
2018-06-24T06:33:01.096Z,53252.0
2018-06-24T06:40:06.100Z,53797.9
2018-06-24T06:41:01.097Z,55128.9
2018-06-24T06:42:01.112Z,56725.0
2018-06-24T06:43:01.206Z,58311.5
2018-06-24T06:44:01.094Z,60148.2
2018-06-24T06:45:01.131Z,61875.4
2018-06-24T06:46:01.099Z,63490.2
2018-06-24T06:47:01.105Z,64889.4
2018-06-24T06:48:01.205Z,65535.0
2018-06-24T07:00:06.126Z,65535.0
2018-06-24T07:15:06.090Z,65535.0
2018-06-24T07:28:01.340Z,65457.8
2018-06-24T07:30:01.135Z,65457.8
2018-06-24T07:41:01.068Z,64394.4
2018-06-24T07:42:01.068Z,63516.9
2018-06-24T07:43:01.245Z,63324.0
2018-06-24T07:44:01.071Z,62838.8
2018-06-24T07:45:06.109Z,62702.1
2018-06-24T07:56:01.165Z,63765.5
2018-06-24T07:57:01.171Z,64643.0
2018-06-24T07:58:01.443Z,64913.1
2018-06-24T07:59:01.104Z,65398.3
2018-06-24T08:00:06.112Z,65535.0
2018-06-24T08:15:01.309Z,65535.0
2018-06-24T08:30:06.098Z,65535.0
2018-06-24T08:45:02.125Z,65535.0
2018-06-24T09:00:01.369Z,65535.0
2018-06-24T09:08:01.311Z,64958.0
2018-06-24T09:09:01.088Z,64302.8
2018-06-24T09:15:01.061Z,64302.8
2018-06-24T09:23:01.384Z,64879.8
2018-06-24T09:24:01.055Z,65535.0
2018-06-24T09:30:06.091Z,65535.0
2018-06-24T09:45:01.125Z,65535.0
2018-06-24T09:53:01.232Z,65521.7
2018-06-24T09:55:06.106Z,65458.7
2018-06-24T09:56:01.095Z,64793.0
2018-06-24T09:57:01.058Z,64279.3
2018-06-24T10:00:01.311Z,64279.3
2018-06-24T10:08:01.371Z,64292.7
2018-06-24T10:10:06.099Z,64355.7
2018-06-24T10:11:01.127Z,65021.3
2018-06-24T10:12:01.098Z,65535.0
2018-06-24T10:15:01.295Z,65535.0
2018-06-24T10:30:01.387Z,65535.0
2018-06-24T10:45:06.105Z,65535.0
2018-06-24T11:00:01.375Z,65535.0
2018-06-24T11:15:01.100Z,65535.0
2018-06-24T11:30:01.086Z,65535.0
2018-06-24T11:45:01.089Z,65535.0
2018-06-24T12:00:01.068Z,65535.0
2018-06-24T12:15:06.105Z,65535.0
2018-06-24T12:30:06.105Z,65535.0
2018-06-24T12:45:01.090Z,65535.0
2018-06-24T13:00:01.831Z,65535.0
2018-06-24T13:15:01.106Z,65535.0
2018-06-24T13:30:01.093Z,65535.0
2018-06-24T13:45:01.066Z,65535.0
2018-06-24T14:00:01.378Z,65535.0
2018-06-24T14:15:01.060Z,65535.0
2018-06-24T14:30:01.066Z,65535.0
2018-06-24T14:45:01.067Z,65535.0
2018-06-24T15:00:01.104Z,65535.0
2018-06-24T15:15:01.097Z,65535.0
2018-06-24T15:30:01.303Z,65535.0
2018-06-24T15:45:01.092Z,65535.0
2018-06-24T16:00:01.101Z,65535.0
2018-06-24T16:15:01.228Z,65535.0
2018-06-24T16:30:01.089Z,65535.0
2018-06-24T16:45:01.059Z,65535.0
2018-06-24T17:00:01.161Z,65535.0
2018-06-24T17:15:01.125Z,65535.0
2018-06-24T17:22:01.416Z,65502.1
2018-06-24T17:23:01.123Z,65382.9
2018-06-24T17:24:01.082Z,65176.9
2018-06-24T17:25:01.086Z,64884.1
2018-06-24T17:26:01.084Z,64517.5
2018-06-24T17:27:01.270Z,64096.9
2018-06-24T17:28:01.114Z,63641.7
2018-06-24T17:29:06.085Z,63158.7
2018-06-24T17:30:01.087Z,62635.3
2018-06-24T17:31:01.055Z,62054.2
2018-06-24T17:32:01.228Z,61424.9
2018-06-24T17:33:01.088Z,60769.6
2018-06-24T17:34:01.054Z,60099.9
2018-06-24T17:35:01.052Z,59394.1
2018-06-24T17:36:01.062Z,58605.5
2018-06-24T17:37:01.229Z,57733.6
2018-06-24T17:38:01.090Z,56826.4
2018-06-24T17:39:01.088Z,55884.5
2018-06-24T17:40:01.054Z,54914.3
2018-06-24T17:41:01.056Z,53920.6
2018-06-24T17:42:01.230Z,52890.0
2018-06-24T17:43:01.056Z,51799.8
2018-06-24T17:44:01.090Z,50639.3
2018-06-24T17:45:01.089Z,49418.3
2018-06-24T17:46:01.074Z,48165.0
2018-06-24T17:47:01.281Z,46881.9
2018-06-24T17:48:01.056Z,45563.9
2018-06-24T17:49:01.095Z,44218.3
2018-06-24T17:50:01.060Z,42875.7
2018-06-24T17:51:01.092Z,41593.6
2018-06-24T17:52:01.230Z,40412.1
2018-06-24T17:53:01.089Z,39328.4
2018-06-24T17:54:01.123Z,38341.1
2018-06-24T17:55:01.097Z,37445.3
2018-06-24T17:56:01.097Z,36619.7
2018-06-24T17:57:01.236Z,35852.8
2018-06-24T17:58:01.157Z,35149.1
2018-06-24T17:59:01.059Z,34517.4
2018-06-24T18:00:01.094Z,33961.3
2018-06-24T18:01:01.092Z,33464.2
2018-06-24T18:02:01.245Z,33008.3
2018-06-24T18:03:01.059Z,32578.3
2018-06-24T18:04:01.130Z,32164.3
2018-06-24T18:05:01.100Z,31761.0
2018-06-24T18:06:01.099Z,31360.9
2018-06-24T18:07:01.239Z,30978.8
2018-06-24T18:08:01.066Z,30655.3
2018-06-24T18:09:01.128Z,30421.9
2018-06-24T18:10:01.097Z,30259.3
2018-06-24T18:11:01.115Z,30132.2
2018-06-24T18:12:01.255Z,30017.9
2018-06-24T18:13:01.094Z,29870.5
2018-06-24T18:14:01.146Z,29679.1
2018-06-24T18:15:01.110Z,29532.2
2018-06-24T18:16:01.095Z,29522.1
2018-06-24T18:17:01.243Z,29658.5
2018-06-24T18:18:01.105Z,29900.2
2018-06-24T18:19:06.099Z,30195.9
2018-06-24T18:21:01.051Z,30402.7
2018-06-24T18:22:01.220Z,30578.4
2018-06-24T18:23:01.081Z,30786.9
2018-06-24T18:24:01.081Z,31067.6
2018-06-24T18:25:01.079Z,31410.6
2018-06-24T18:26:01.047Z,31801.7
2018-06-24T18:27:01.290Z,32251.1
2018-06-24T18:28:01.068Z,32761.9
2018-06-24T18:29:01.047Z,33345.1
2018-06-24T18:30:01.054Z,33953.9
2018-06-24T18:31:01.083Z,34461.3
2018-06-24T18:32:01.272Z,34787.9
2018-06-24T18:33:01.139Z,34970.0
2018-06-24T18:34:01.052Z,35073.1
2018-06-24T18:35:01.082Z,35148.1
2018-06-24T18:36:01.082Z,35324.7
2018-06-24T18:37:01.231Z,35534.7
2018-06-24T18:38:01.102Z,35685.8
2018-06-24T18:39:01.087Z,35711.9
2018-06-24T18:40:01.088Z,35603.4
2018-06-24T18:41:01.088Z,35409.1
2018-06-24T18:42:01.229Z,35148.5
2018-06-24T18:43:01.084Z,34827.2
2018-06-24T18:44:01.055Z,34459.3
2018-06-24T18:45:01.113Z,34085.3
2018-06-24T18:46:01.083Z,33721.3
2018-06-24T18:47:01.231Z,33355.9
2018-06-24T18:48:01.054Z,32965.9
2018-06-24T18:49:01.085Z,32556.5
2018-06-24T18:50:01.129Z,32134.3
2018-06-24T18:51:01.088Z,31698.9
2018-06-24T18:52:01.228Z,31243.5
2018-06-24T18:53:01.052Z,30765.3
2018-06-24T18:54:01.060Z,30251.9
2018-06-24T18:55:01.055Z,29681.1
2018-06-24T18:56:01.087Z,29036.8
2018-06-24T18:57:01.243Z,28337.9
2018-06-24T18:58:01.066Z,27611.5
2018-06-24T18:59:01.053Z,26870.8
2018-06-24T19:00:01.055Z,26127.5
2018-06-24T19:01:01.115Z,25406.7
2018-06-24T19:02:01.230Z,24699.9
2018-06-24T19:03:01.197Z,23981.3
2018-06-24T19:04:01.096Z,23235.1
2018-06-24T19:05:01.097Z,22474.2
2018-06-24T19:06:01.113Z,21724.9
2018-06-24T19:07:01.274Z,21001.9
2018-06-24T19:08:01.062Z,20313.3
2018-06-24T19:09:01.059Z,19656.6
2018-06-24T19:10:01.096Z,19035.1
2018-06-24T19:11:01.098Z,18450.7
2018-06-24T19:12:01.240Z,17894.7
2018-06-24T19:13:06.097Z,17358.9
2018-06-24T19:14:01.108Z,16850.2
2018-06-24T19:15:01.062Z,16369.0
2018-06-24T19:16:01.060Z,15911.0
2018-06-24T19:17:01.211Z,15489.5
2018-06-24T19:18:06.104Z,15117.2
2018-06-24T19:19:01.093Z,14778.1
2018-06-24T19:20:01.098Z,14443.3
2018-06-24T19:21:01.100Z,14100.9
2018-06-24T19:22:01.239Z,13752.9
2018-06-24T19:23:06.096Z,13399.1
2018-06-24T19:24:01.065Z,13047.7
2018-06-24T19:25:01.101Z,12704.0
2018-06-24T19:26:01.094Z,12362.8
2018-06-24T19:27:01.236Z,12022.4
2018-06-24T19:28:06.109Z,11681.7
2018-06-24T19:29:01.103Z,11341.3
2018-06-24T19:30:01.105Z,11004.7
2018-06-24T19:32:01.256Z,10658.3
2018-06-24T19:33:01.108Z,10321.7
2018-06-24T19:34:01.087Z,9992.7
2018-06-24T19:35:01.088Z,9672.3
2018-06-24T19:36:01.088Z,9357.9
2018-06-24T19:37:01.292Z,9044.1
2018-06-24T19:38:01.091Z,8731.0
2018-06-24T19:39:01.091Z,8420.7
2018-06-24T19:40:01.100Z,8113.3
2018-06-24T19:41:01.090Z,7810.9
2018-06-24T19:42:01.231Z,7515.7
2018-06-24T19:43:01.057Z,7225.5
2018-06-24T19:44:01.090Z,6940.2
2018-06-24T19:45:01.136Z,6659.6
2018-06-24T19:46:01.056Z,6385.2
2018-06-24T19:47:01.231Z,6134.6
2018-06-24T19:48:01.057Z,5888.1
2018-06-24T19:49:01.062Z,5645.1
2018-06-24T19:50:01.094Z,5404.2
2018-06-24T19:51:01.058Z,5167.6
2018-06-24T19:52:01.262Z,4937.1
2018-06-24T19:53:01.059Z,4710.7
2018-06-24T19:54:01.091Z,4489.1
2018-06-24T19:55:01.061Z,4273.4
2018-06-24T19:56:01.060Z,4064.9
2018-06-24T19:57:01.234Z,3864.5
2018-06-24T19:58:01.095Z,3676.2
2018-06-24T19:59:01.063Z,3502.2
2018-06-24T20:00:01.063Z,3341.7
2018-06-24T20:01:01.098Z,3189.4
2018-06-24T20:02:01.326Z,3041.4
2018-06-24T20:03:01.063Z,2896.7
2018-06-24T20:04:01.067Z,2755.1
2018-06-24T20:05:01.062Z,2617.6
2018-06-24T20:06:01.093Z,2485.8
2018-06-24T20:07:01.277Z,2359.7
2018-06-24T20:08:01.095Z,2239.1
2018-06-24T20:09:01.061Z,2123.2
2018-06-24T20:10:01.067Z,2011.9
2018-06-24T20:11:01.100Z,1904.9
2018-06-24T20:12:01.348Z,1801.4
2018-06-24T20:13:01.061Z,1700.8
2018-06-24T20:14:01.061Z,1602.5
2018-06-24T20:15:01.067Z,1506.3
2018-06-24T20:16:01.099Z,1412.8
2018-06-24T20:17:01.287Z,1323.3
2018-06-24T20:18:01.064Z,1238.1
2018-06-24T20:19:01.067Z,1157.1
2018-06-24T20:20:01.097Z,1080.5
2018-06-24T20:21:01.097Z,1007.9
2018-06-24T20:22:01.329Z,938.7
2018-06-24T20:23:01.098Z,872.5
2018-06-24T20:24:01.097Z,809.5
2018-06-24T20:25:01.067Z,749.7
2018-06-24T20:27:01.280Z,691.1
2018-06-24T20:28:01.088Z,635.9
2018-06-24T20:29:06.093Z,584.1
2018-06-24T20:30:01.095Z,535.5
2018-06-24T20:31:01.083Z,490.2
2018-06-24T20:32:01.205Z,448.1
2018-06-24T20:33:01.090Z,409.3
2018-06-24T20:34:01.082Z,373.3
2018-06-24T20:35:01.125Z,340.1
2018-06-24T20:36:01.085Z,309.4
2018-06-24T20:37:01.231Z,281.0
2018-06-24T20:38:01.053Z,254.7
2018-06-24T20:39:01.113Z,230.5
2018-06-24T20:40:01.089Z,208.1
2018-06-24T20:41:01.093Z,187.3
2018-06-24T20:42:01.430Z,170.3
2018-06-24T20:43:01.095Z,154.6
2018-06-24T20:44:06.090Z,140.3
2018-06-24T20:45:01.055Z,127.1
2018-06-24T20:46:01.091Z,115.2
2018-06-24T20:47:01.231Z,104.3
2018-06-24T20:48:01.086Z,94.4
2018-06-24T20:49:01.088Z,85.4
2018-06-24T20:50:06.098Z,77.2
2018-06-24T20:51:01.091Z,69.8
2018-06-24T20:52:01.273Z,63.1
2018-06-24T20:53:01.062Z,56.9
2018-06-24T20:54:06.091Z,51.4
2018-06-24T20:55:01.057Z,46.4
2018-06-24T20:56:01.089Z,41.9
2018-06-24T20:57:01.246Z,37.9
2018-06-24T20:58:01.086Z,34.2
2018-06-24T20:59:01.113Z,30.9
2018-06-24T21:00:01.084Z,27.9
2018-06-24T21:01:01.091Z,25.2
2018-06-24T21:02:01.234Z,22.7
2018-06-24T21:03:01.087Z,20.5
2018-06-24T21:04:01.172Z,18.6
2018-06-24T21:05:01.099Z,16.9
2018-06-24T21:06:01.093Z,15.3
2018-06-24T21:07:01.227Z,13.8
2018-06-24T21:08:01.084Z,12.5
2018-06-24T21:09:01.118Z,11.3
2018-06-24T21:10:01.092Z,10.3
2018-06-24T21:11:01.086Z,9.3
2018-06-24T21:12:01.230Z,8.4
2018-06-24T21:13:01.054Z,7.7
2018-06-24T21:14:01.088Z,6.9
2018-06-24T21:15:01.111Z,6.3
2018-06-24T21:16:01.090Z,5.7
2018-06-24T21:17:01.294Z,5.3
2018-06-24T21:18:01.097Z,4.8
2018-06-24T21:19:01.088Z,4.3
2018-06-24T21:20:01.116Z,3.9
2018-06-24T21:21:01.072Z,3.6
2018-06-24T21:22:01.231Z,3.3
2018-06-24T21:23:01.092Z,3.1
2018-06-24T21:24:01.088Z,2.9
2018-06-24T21:25:01.117Z,2.6
2018-06-24T21:26:01.095Z,2.4
2018-06-24T21:27:01.271Z,2.2
2018-06-24T21:28:01.055Z,2.0
2018-06-24T21:29:01.059Z,1.9
2018-06-24T21:30:01.131Z,1.7
2018-06-24T21:31:01.060Z,1.6
2018-06-24T21:32:01.230Z,1.5
2018-06-24T21:33:01.091Z,1.4
2018-06-24T21:34:01.095Z,1.3
2018-06-24T21:36:01.128Z,1.2
2018-06-24T21:37:01.234Z,1.1
2018-06-24T21:39:01.159Z,1.0
2018-06-24T21:42:01.235Z,0.9
2018-06-24T21:44:01.108Z,0.8
2018-06-24T21:45:01.097Z,0.7
2018-06-24T21:47:01.316Z,0.6
2018-06-24T21:48:01.095Z,0.5
2018-06-24T21:50:01.065Z,0.4
2018-06-24T21:51:01.100Z,0.3
2018-06-24T21:53:01.241Z,0.2
2018-06-24T21:54:01.063Z,0.1
